Wind From: 20-09-2018 17:00 Until: 20:00 warning for: Wind Level: Yellow info button
suomi:
Tuulivaroitus maa-alueille: Lounaistuuli on voimakasta illalla, tuulen nopeus puuskissa 15 m/s.

svenska:
Vindvarning för landområden: På kvällen är den sydvästliga vinden kraftigt, i vindbyarna 15 m/s.

english:
Wind warning for land areas: In the evening, strong winds from southwest may bring strong gusts of 15 m/s. 


Thunder radar more information blitzortung!


Löydät sääaseman tiedot myös:

European Weather Network

Finland Weather Exchange

Weather Underground

AWEKAS



Weather Underground säähistoriasivu

Päivittäin yhteenveto Lokakuu 28, 2017 Yksiköt:  Englantilaiset    Metriset   Molemmat
« Edellinen Päivä
Seuraava Päivä »
Päivittäin Viikoittain Kuukausittain Vuosittain Mukautettu
  Korkea: Matala: Keskiarvo:
Lämpötila: TemperatureC °F 0.8 °F 2.3 °F
Kastepiste: DewpointC °F 0.4 °F 2 °F
Kosteus: Humidity % 97 % 97 %
Tuulen nopeus: WindSpeedKMH mph 0.0 mph 2.6 mph
Tuulenpuuska: WindSpeedGustKMH mph - -
Tuuli:- - South
Ilmanpaine: PressurehPa in 975.8 in -
Sade: 0.3 in    
Historical Graphs
 
 
Taulukkotiedot Lokakuu 28, 2017
Aika Lämpötila Kastepiste Ilmanpaine Tuuli Tuulen nopeus Tuulenpuuska Kosteus Sademäärä (tunneittain)
TemperatureC °F DewpointC °F PressurehPa in Calm     Humidity % HourlyPrecipMM in
00:00 0.8 °F 0.4 °F 997.9 in SSW 8.0 mph 16.1 mph 97 % 0.0 in
00:15 0.9 °F 0.5 °F 997.5 in SSW 8.0 mph 16.1 mph 97 % 0.0 in
00:30 0.9 °F 0.5 °F 997.2 in SSW 8.0 mph 17.7 mph 97 % 0.0 in
00:45 0.9 °F 0.5 °F 996.8 in SSW 8.0 mph 17.7 mph 97 % 0.0 in
01:00 1.0 °F 0.6 °F 996.5 in SSW 6.4 mph 12.9 mph 97 % 0.0 in
01:15 1.1 °F 0.6 °F 995.8 in SSW 6.4 mph 16.1 mph 97 % 0.0 in
01:30 1.2 °F 0.7 °F 995.5 in SSW 6.4 mph 16.1 mph 97 % 0.0 in
01:45 1.2 °F 0.7 °F 995.1 in South 4.8 mph 20.9 mph 97 % 0.0 in
02:00 1.2 °F 0.9 °F 994.8 in SSW 3.2 mph 11.3 mph 98 % 0.0 in
02:15 1.3 °F 1.0 °F 994.5 in SSW 4.8 mph 12.9 mph 98 % 0.0 in
02:30 1.4 °F 1.1 °F 994.1 in SSW 6.4 mph 14.5 mph 98 % 0.0 in
02:45 1.4 °F 1.2 °F 993.8 in SSW 6.4 mph 14.5 mph 98 % 0.0 in
03:00 1.4 °F 1.2 °F 993.5 in SSW 6.4 mph 14.5 mph 98 % 0.0 in
03:15 1.6 °F 1.3 °F 993.1 in SSW 4.8 mph 14.5 mph 98 % 0.0 in
03:30 1.6 °F 1.3 °F 992.8 in SSW 6.4 mph 17.7 mph 98 % 0.3 in
03:45 1.7 °F 1.4 °F 992.1 in SSW 3.2 mph 9.7 mph 98 % 0.3 in
04:00 1.6 °F 1.3 °F 991.8 in South 3.2 mph 9.7 mph 98 % 0.3 in
04:15 1.6 °F 1.3 °F 991.4 in South 3.2 mph 8.0 mph 98 % 0.3 in
04:30 1.7 °F 1.4 °F 991.1 in South 3.2 mph 11.3 mph 98 % 0.0 in
05:00 1.8 °F 1.6 °F 990.4 in SSW 4.8 mph 12.9 mph 98 % 0.0 in
05:15 1.9 °F 1.7 °F 990.1 in SSW 4.8 mph 11.3 mph 98 % 0.0 in
05:30 2.1 °F 1.8 °F 989.7 in South 4.8 mph 11.3 mph 98 % 0.0 in
05:45 2.1 °F 1.8 °F 989.4 in SSW 4.8 mph 11.3 mph 98 % 0.0 in
06:00 2.1 °F 1.8 °F 988.7 in South 4.8 mph 14.5 mph 98 % 0.0 in
06:15 2.1 °F 1.8 °F 988.7 in SSW 6.4 mph 12.9 mph 98 % 0.0 in
06:30 2.2 °F 1.9 °F 988.0 in SSW 4.8 mph 12.9 mph 98 % 0.0 in
06:45 2.3 °F 2.0 °F 988.0 in SSW 6.4 mph 14.5 mph 98 % 0.0 in
07:00 2.3 °F 2.1 °F 987.7 in SSW 6.4 mph 17.7 mph 98 % 0.0 in
07:15 2.3 °F 2.1 °F 987.0 in SSW 6.4 mph 24.1 mph 98 % 0.0 in
07:30 2.4 °F 2.1 °F 986.7 in SSW 6.4 mph 14.5 mph 98 % 0.0 in
07:45 2.4 °F 2.2 °F 986.3 in South 6.4 mph 16.1 mph 98 % 0.0 in
08:00 2.4 °F 2.2 °F 986.0 in SSW 4.8 mph 14.5 mph 98 % 0.0 in
08:15 2.4 °F 2.2 °F 986.0 in South 4.8 mph 19.3 mph 98 % 0.0 in
08:30 2.4 °F 2.2 °F 985.7 in South 4.8 mph 12.9 mph 98 % 0.0 in
08:45 2.4 °F 2.2 °F 985.3 in South 3.2 mph 11.3 mph 98 % 0.0 in
09:00 2.5 °F 2.2 °F 985.3 in SSW 3.2 mph 14.5 mph 98 % 0.0 in
09:15 2.5 °F 2.2 °F 985.3 in South 4.8 mph 14.5 mph 98 % 0.0 in
09:30 2.4 °F 2.2 °F 985.0 in South 3.2 mph 11.3 mph 98 % 0.0 in
10:00 2.4 °F 2.2 °F 984.6 in South 1.6 mph 8.0 mph 98 % 0.0 in
10:15 2.4 °F 2.2 °F 984.6 in South 3.2 mph 11.3 mph 98 % 0.0 in
10:30 2.5 °F 2.2 °F 984.3 in South 1.6 mph 11.3 mph 98 % 0.0 in
10:45 2.7 °F 2.4 °F 984.3 in South 3.2 mph 11.3 mph 98 % 0.0 in
11:00 2.8 °F 2.4 °F 984.0 in South 1.6 mph 12.9 mph 98 % 0.0 in
11:15 2.8 °F 2.5 °F 984.0 in SSW 1.6 mph 11.3 mph 98 % 0.0 in
11:30 2.8 °F 2.5 °F 983.6 in South 1.6 mph 8.0 mph 98 % 0.0 in
11:45 2.8 °F 2.5 °F 983.6 in SSW 3.2 mph 11.3 mph 98 % 0.0 in
12:00 2.9 °F 2.6 °F 983.3 in South 1.6 mph 9.7 mph 98 % 0.0 in
12:15 3.0 °F 2.7 °F 983.0 in South 3.2 mph 9.7 mph 98 % 0.0 in
12:30 3.1 °F 2.8 °F 983.0 in SSW 3.2 mph 9.7 mph 98 % 0.0 in
12:45 3.1 °F 2.8 °F 982.6 in South 3.2 mph 11.3 mph 98 % 0.0 in
13:00 3.1 °F 2.8 °F 982.6 in South 1.6 mph 8.0 mph 98 % 0.0 in
13:30 3.1 °F 2.8 °F 982.3 in SSE 1.6 mph 9.7 mph 98 % 0.0 in
13:45 3.1 °F 2.8 °F 981.9 in SSE 1.6 mph 8.0 mph 98 % 0.0 in
14:00 3.1 °F 2.8 °F 981.9 in Calm   9.7 mph 98 % 0.0 in
14:15 3.2 °F 2.9 °F 981.6 in SSE 1.6 mph 9.7 mph 98 % 0.0 in
14:30 3.2 °F 2.9 °F 981.6 in Calm   11.3 mph 98 % 0.0 in
14:45 3.2 °F 2.9 °F 981.3 in SSE 1.6 mph 9.7 mph 98 % 0.0 in
15:00 3.2 °F 2.9 °F 980.9 in South 1.6 mph 9.7 mph 98 % 0.0 in
15:15 3.2 °F 2.9 °F 980.9 in South 1.6 mph 8.0 mph 98 % 0.0 in
15:30 3.2 °F 2.9 °F 980.9 in South 1.6 mph 8.0 mph 98 % 0.0 in
15:45 3.1 °F 2.8 °F 980.6 in Calm   8.0 mph 98 % 0.0 in
16:00 3.1 °F 2.8 °F 980.2 in Calm   6.4 mph 98 % 0.0 in
16:15 3.1 °F 2.8 °F 979.9 in Calm   6.4 mph 98 % 0.0 in
16:30 2.9 °F 2.7 °F 979.9 in Calm   6.4 mph 98 % 0.0 in
16:45 2.9 °F 2.7 °F 979.6 in Calm   1.6 mph 98 % 0.0 in
17:00 2.8 °F 2.5 °F 979.6 in Calm   3.2 mph 98 % 0.0 in
17:15 2.8 °F 2.5 °F 979.2 in Calm   6.4 mph 98 % 0.0 in
17:30 2.7 °F 2.4 °F 979.2 in Calm   3.2 mph 98 % 0.0 in
17:45 2.7 °F 2.4 °F 978.9 in Calm   6.4 mph 98 % 0.0 in
18:00 2.6 °F 2.3 °F 978.9 in Calm   6.4 mph 98 % 0.0 in
18:15 2.6 °F 2.3 °F 978.6 in Calm   8.0 mph 98 % 0.0 in
18:30 2.5 °F 2.2 °F 978.2 in Calm   4.8 mph 98 % 0.0 in
18:45 2.5 °F 2.2 °F 978.2 in South 1.6 mph 6.4 mph 98 % 0.0 in
19:00 2.5 °F 2.2 °F 977.9 in Calm   1.6 mph 98 % 0.0 in
19:15 2.5 °F 2.2 °F 977.9 in Calm   6.4 mph 98 % 0.0 in
19:30 2.5 °F 2.2 °F 977.9 in Calm   6.4 mph 98 % 0.0 in
19:45 2.4 °F 2.2 °F 977.5 in Calm   6.4 mph 98 % 0.0 in
20:00 2.4 °F 2.2 °F 977.5 in Calm   1.6 mph 98 % 0.0 in
20:15 2.4 °F 2.1 °F 977.5 in Calm     98 % 0.0 in
20:30 2.3 °F 2.1 °F 977.2 in Calm     98 % 0.0 in
20:45 2.3 °F 2.0 °F 977.2 in Calm     98 % 0.0 in
21:00 2.2 °F 1.9 °F 977.2 in Calm     98 % 0.0 in
21:15 2.2 °F 1.9 °F 976.9 in Calm   3.2 mph 98 % 0.0 in
21:30 2.2 °F 1.9 °F 976.9 in Calm   4.8 mph 98 % 0.0 in
21:45 2.2 °F 1.9 °F 976.9 in Calm     98 % 0.0 in
22:00 2.2 °F 1.9 °F 976.5 in Calm     98 % 0.0 in
22:15 2.1 °F 1.8 °F 976.5 in Calm     98 % 0.0 in
22:30 1.9 °F 1.7 °F 976.2 in Calm     98 % 0.0 in
22:45 1.9 °F 1.7 °F 976.2 in Calm     98 % 0.0 in
23:00 1.9 °F 1.7 °F 976.2 in Calm     98 % 0.0 in
23:15 2.0 °F 1.7 °F 976.2 in Calm     98 % 0.0 in
23:30 2.0 °F 1.7 °F 976.2 in Calm     98 % 0.0 in
23:45 2.1 °F 1.8 °F 975.8 in Calm     98 % 0.0 in
Esan sääasema
Terveisin Weather Underground - 2.75 mb

Alkuperäinen skripti  Jim McMurry - jmcmurry@mwt.net Sovitettu myös templatelle  Wim van der Kuil - Leuven-Template.eu

Laitteet joita käytämme:

Sääasema
Davis VP2

Sääasemaohjelma
Cumulus

Sääaseman tietokone
Asus EeePC

Palveluntarjoaja
Suncomet

Davis VP2

Cumulus

Asus EeePC

Suncomet